createdAt,value
2022-12-12T00:01:34.677Z,10.18
2022-12-12T00:04:01.633Z,11.00
2022-12-12T00:06:29.017Z,11.10
2022-12-12T00:08:56.328Z,10.63
2022-12-12T00:11:24.164Z,11.20
2022-12-12T00:13:51.323Z,11.10
2022-12-12T00:16:18.564Z,11.50
2022-12-12T00:18:45.524Z,9.98
2022-12-12T00:21:21.181Z,10.10
2022-12-12T00:23:48.264Z,11.98
2022-12-12T00:26:24.251Z,12.20
2022-12-12T00:28:51.505Z,12.32
2022-12-12T00:31:19.103Z,11.50
2022-12-12T00:33:48.780Z,11.48
2022-12-12T00:36:17.208Z,11.50
2022-12-12T00:38:44.240Z,10.18
2022-12-12T00:41:11.559Z,10.15
2022-12-12T00:43:38.600Z,9.80
2022-12-12T00:46:05.867Z,9.65
2022-12-12T00:48:33.209Z,9.70
2022-12-12T00:51:08.805Z,10.32
2022-12-12T00:53:37.028Z,10.23
2022-12-12T00:56:05.041Z,10.07
2022-12-12T00:58:32.879Z,10.18
2022-12-12T01:01:06.641Z,10.35
2022-12-12T01:03:38.451Z,11.13
2022-12-12T01:06:05.872Z,10.60
2022-12-12T01:08:33.253Z,10.38
2022-12-12T01:11:00.939Z,11.90
2022-12-12T01:13:28.662Z,13.32
2022-12-12T01:15:55.626Z,13.55
2022-12-12T01:18:22.756Z,14.18
2022-12-12T01:20:49.906Z,13.57
2022-12-12T01:23:16.871Z,14.38
2022-12-12T01:25:43.834Z,12.70
2022-12-12T01:28:10.812Z,11.43
2022-12-12T01:30:37.903Z,12.65
2022-12-12T01:33:05.113Z,13.60
2022-12-12T01:35:33.706Z,11.25
2022-12-12T01:38:00.723Z,12.05
2022-12-12T01:40:30.343Z,12.05
2022-12-12T01:42:57.478Z,11.48
2022-12-12T01:45:58.740Z,11.70
2022-12-12T01:48:51.851Z,11.95
2022-12-12T01:51:22.371Z,9.15
2022-12-12T01:53:53.670Z,12.10
2022-12-12T01:56:21.840Z,12.40
2022-12-12T01:58:51.406Z,11.48
2022-12-12T02:01:19.311Z,9.75
2022-12-12T02:03:48.533Z,8.50
2022-12-12T02:06:20.398Z,8.57
2022-12-12T02:08:48.707Z,8.98
2022-12-12T02:11:15.860Z,8.98
2022-12-12T02:13:43.180Z,9.52
2022-12-12T02:16:24.988Z,8.57
2022-12-12T02:19:26.019Z,8.75
2022-12-12T02:22:02.573Z,9.48
2022-12-12T02:24:41.086Z,9.23
2022-12-12T02:27:49.135Z,8.57
2022-12-12T02:30:23.061Z,7.93
2022-12-12T02:33:11.165Z,9.50
2022-12-12T02:36:12.700Z,8.90
2022-12-12T02:39:12.504Z,9.73
2022-12-12T02:42:13.036Z,8.73
2022-12-12T02:44:52.931Z,7.50
2022-12-12T02:47:23.785Z,8.18
2022-12-12T02:49:56.962Z,7.88
2022-12-12T02:52:25.027Z,7.47
2022-12-12T02:54:52.078Z,7.28
2022-12-12T02:57:24.628Z,7.97
2022-12-12T03:00:08.978Z,8.50
2022-12-12T03:03:19.228Z,8.20
2022-12-12T03:06:39.221Z,8.50
2022-12-12T03:09:26.117Z,7.72
2022-12-12T03:11:53.015Z,8.73
2022-12-12T03:14:50.554Z,8.43
2022-12-12T03:17:45.303Z,8.18
2022-12-12T03:20:15.330Z,8.80
2022-12-12T03:22:51.529Z,8.15
2022-12-12T03:25:34.701Z,8.13
2022-12-12T03:28:05.344Z,7.53
2022-12-12T03:30:39.433Z,7.50
2022-12-12T03:33:30.246Z,8.00
2022-12-12T03:36:15.538Z,8.68
2022-12-12T03:38:57.143Z,8.68
2022-12-12T03:41:30.518Z,8.65
2022-12-12T03:44:14.407Z,7.88
2022-12-12T03:46:56.563Z,9.38
2022-12-12T03:49:33.416Z,10.02
2022-12-12T03:52:31.140Z,9.52
2022-12-12T03:55:10.847Z,9.50
2022-12-12T03:58:00.197Z,8.65
2022-12-12T04:00:30.384Z,9.05
2022-12-12T04:03:06.113Z,9.07
2022-12-12T04:06:12.007Z,8.90
2022-12-12T04:08:40.225Z,8.27
2022-12-12T04:11:37.234Z,8.50
2022-12-12T04:14:29.252Z,9.23
2022-12-12T04:17:00.908Z,10.73
2022-12-12T04:20:18.195Z,8.95
2022-12-12T04:23:18.518Z,8.80
2022-12-12T04:26:10.115Z,9.57
2022-12-12T04:28:39.881Z,9.88
2022-12-12T04:31:08.339Z,11.02
2022-12-12T04:33:43.600Z,10.18
2022-12-12T04:36:13.049Z,9.23
2022-12-12T04:38:41.814Z,9.80
2022-12-12T04:41:12.098Z,9.73
2022-12-12T04:43:43.345Z,9.25
2022-12-12T04:46:21.452Z,9.50
2022-12-12T04:48:59.355Z,10.25
2022-12-12T04:51:31.746Z,10.32
2022-12-12T04:54:25.887Z,9.40
2022-12-12T04:56:59.961Z,11.27
2022-12-12T04:59:27.203Z,10.88
2022-12-12T05:02:41.911Z,10.95
2022-12-12T05:05:35.783Z,11.38
2022-12-12T05:10:44.245Z,12.15
2022-12-12T05:13:17.814Z,11.82
2022-12-12T05:15:46.284Z,11.38
2022-12-12T05:18:14.012Z,12.38
2022-12-12T05:20:41.031Z,12.43
2022-12-12T05:23:08.089Z,11.55
2022-12-12T05:25:35.020Z,11.23
2022-12-12T05:28:02.097Z,12.27
2022-12-12T05:30:29.190Z,11.65
2022-12-12T05:32:56.205Z,11.50
2022-12-12T05:35:23.531Z,11.82
2022-12-12T05:37:52.130Z,11.02
2022-12-12T05:40:20.714Z,10.55
2022-12-12T05:42:48.367Z,9.38
2022-12-12T05:45:15.728Z,7.93
2022-12-12T05:47:43.048Z,8.02
2022-12-12T05:50:10.525Z,8.02
2022-12-12T05:52:37.559Z,9.18
2022-12-12T05:55:05.590Z,10.57
2022-12-12T05:57:32.700Z,15.45
2022-12-12T05:59:59.876Z,11.35
2022-12-12T06:02:26.993Z,14.27
2022-12-12T06:04:53.979Z,7.82
2022-12-12T06:07:21.055Z,8.00
2022-12-12T06:09:48.030Z,6.57
2022-12-12T06:12:15.039Z,6.35
2022-12-12T06:14:41.988Z,7.72
2022-12-12T06:17:08.911Z,7.97
2022-12-12T06:19:35.874Z,9.38
2022-12-12T06:22:02.760Z,10.27
2022-12-12T06:24:29.784Z,9.75
2022-12-12T06:26:56.720Z,10.30
2022-12-12T06:29:23.703Z,9.95
2022-12-12T06:31:50.682Z,10.30
2022-12-12T06:34:17.622Z,10.07
2022-12-12T06:36:44.653Z,10.77
2022-12-12T06:39:11.665Z,36.25
2022-12-12T06:41:39.901Z,12.73
2022-12-12T06:44:08.028Z,12.25
2022-12-12T06:46:35.422Z,12.38
2022-12-12T06:49:03.255Z,12.40
2022-12-12T06:51:36.457Z,12.38
2022-12-12T06:54:03.813Z,12.38
2022-12-12T06:56:31.133Z,10.95
2022-12-12T06:58:59.631Z,11.48
2022-12-12T07:01:26.796Z,12.10
2022-12-12T07:03:53.900Z,13.27
2022-12-12T07:06:23.405Z,12.68
2022-12-12T07:08:51.948Z,12.38
2022-12-12T07:11:22.241Z,12.63
2022-12-12T07:13:50.023Z,12.23
2022-12-12T07:16:17.813Z,13.63
2022-12-12T07:18:44.913Z,13.57
2022-12-12T07:21:14.328Z,14.23
2022-12-12T07:23:41.788Z,13.07
2022-12-12T07:26:22.216Z,15.90
2022-12-12T07:28:50.656Z,14.70
2022-12-12T07:31:21.222Z,14.45
2022-12-12T07:33:48.566Z,19.38
2022-12-12T07:36:16.428Z,18.63
2022-12-12T07:38:43.919Z,22.60
2022-12-12T07:41:14.210Z,22.55
2022-12-12T07:43:44.528Z,22.30
2022-12-12T07:46:15.534Z,22.60
2022-12-12T07:48:43.156Z,27.23
2022-12-12T07:51:10.133Z,30.20
2022-12-12T07:53:37.076Z,29.45
2022-12-12T07:56:09.337Z,30.60
2022-12-12T07:58:36.424Z,30.13
2022-12-12T08:01:14.332Z,27.27
2022-12-12T08:03:43.138Z,30.52
2022-12-12T08:06:10.278Z,28.50
2022-12-12T08:08:37.498Z,27.30
2022-12-12T08:11:10.256Z,27.23
2022-12-12T08:13:38.942Z,26.15
2022-12-12T08:16:07.584Z,26.23
2022-12-12T08:18:34.868Z,23.60
2022-12-12T08:21:01.874Z,23.58
2022-12-12T08:23:28.878Z,25.35
2022-12-12T08:25:55.822Z,24.75
2022-12-12T08:28:22.814Z,27.75
2022-12-12T08:30:50.753Z,28.77
2022-12-12T08:33:18.384Z,27.55
2022-12-12T08:35:45.655Z,29.63
2022-12-12T08:38:13.660Z,24.38
2022-12-12T08:40:41.696Z,24.95
2022-12-12T08:43:09.708Z,27.80
2022-12-12T08:45:38.779Z,19.75
2022-12-12T08:48:07.129Z,19.02
2022-12-12T08:50:34.764Z,20.23
2022-12-12T08:53:01.726Z,15.80
2022-12-12T08:55:28.839Z,15.00
2022-12-12T08:57:55.785Z,17.08
2022-12-12T09:00:22.929Z,18.50
2022-12-12T09:02:50.121Z,19.38
2022-12-12T09:05:17.191Z,21.90
2022-12-12T09:07:44.162Z,21.23
2022-12-12T09:10:11.476Z,25.50
2022-12-12T09:12:41.707Z,26.92
2022-12-12T09:15:09.839Z,25.35
2022-12-12T09:17:37.142Z,21.73
2022-12-12T09:20:04.902Z,18.75
2022-12-12T09:22:31.820Z,19.75
2022-12-12T09:24:58.796Z,17.60
2022-12-12T09:27:25.742Z,17.88
2022-12-12T09:29:52.962Z,18.83
2022-12-12T09:32:24.415Z,14.98
2022-12-12T09:34:52.024Z,19.02
2022-12-12T09:37:19.052Z,18.45
2022-12-12T09:39:46.033Z,17.27
2022-12-12T09:42:20.216Z,17.40
2022-12-12T09:44:48.527Z,14.73
2022-12-12T09:47:30.308Z,14.35
2022-12-12T09:50:04.113Z,15.10
2022-12-12T09:52:34.854Z,16.65
2022-12-12T09:55:24.677Z,17.42
2022-12-12T09:58:20.898Z,16.10
2022-12-12T10:00:56.800Z,16.23
2022-12-12T10:03:49.940Z,15.77
2022-12-12T10:09:27.123Z,15.80
2022-12-12T10:11:55.820Z,16.00
2022-12-12T10:14:34.697Z,15.52
2022-12-12T10:17:05.576Z,18.23
2022-12-12T10:19:38.439Z,18.17
2022-12-12T10:22:17.473Z,18.70
2022-12-12T10:24:59.831Z,22.02
2022-12-12T10:27:26.729Z,21.50
2022-12-12T10:29:54.126Z,19.23
2022-12-12T10:32:48.583Z,18.63
2022-12-12T10:35:38.863Z,16.80
2022-12-12T10:38:43.656Z,17.45
2022-12-12T10:41:23.915Z,15.52
2022-12-12T10:44:17.279Z,14.10
2022-12-12T10:46:50.072Z,13.35
2022-12-12T10:49:20.164Z,11.90
2022-12-12T10:51:48.727Z,11.43
2022-12-12T10:54:19.376Z,11.85
2022-12-12T10:57:24.811Z,14.30
2022-12-12T10:59:57.648Z,15.73
2022-12-12T11:02:39.299Z,16.42
2022-12-12T11:05:06.322Z,11.43
2022-12-12T11:07:38.978Z,9.80
2022-12-12T11:10:22.038Z,19.23
2022-12-12T11:13:00.517Z,12.68
2022-12-12T11:15:39.957Z,11.55
2022-12-12T11:18:13.315Z,11.90
2022-12-12T11:20:49.865Z,10.13
2022-12-12T11:23:20.810Z,9.60
2022-12-12T11:26:05.979Z,9.57
2022-12-12T11:28:36.394Z,10.55
2022-12-12T11:31:07.449Z,9.40
2022-12-12T11:33:57.392Z,9.52
2022-12-12T11:36:37.053Z,13.10
2022-12-12T11:39:23.483Z,11.73
2022-12-12T11:42:05.379Z,7.72
2022-12-12T11:44:37.906Z,7.80
2022-12-12T11:47:19.896Z,7.70
2022-12-12T11:49:48.819Z,7.22
2022-12-12T11:52:29.917Z,7.43
2022-12-12T11:54:57.614Z,7.50
2022-12-12T11:57:37.941Z,6.63
2022-12-12T12:00:11.835Z,6.13
2022-12-12T12:03:02.981Z,7.35
2022-12-12T12:05:43.591Z,7.05
2022-12-12T12:08:17.669Z,6.13
2022-12-12T12:10:54.363Z,5.63
2022-12-12T12:13:33.251Z,6.00
2022-12-12T12:16:12.253Z,5.93
2022-12-12T12:19:11.824Z,6.75
2022-12-12T12:22:02.428Z,7.13
2022-12-12T12:24:53.422Z,7.53
2022-12-12T12:27:47.641Z,7.70
2022-12-12T12:30:37.752Z,8.02
2022-12-12T12:33:40.096Z,5.80
2022-12-12T12:36:24.087Z,5.93
2022-12-12T12:39:02.631Z,5.60
2022-12-12T12:41:35.117Z,5.25
2022-12-12T12:44:42.617Z,6.32
2022-12-12T12:47:23.405Z,5.30
2022-12-12T12:50:05.485Z,5.72
2022-12-12T12:52:41.906Z,7.53
2022-12-12T12:55:16.920Z,7.15
2022-12-12T12:57:47.078Z,8.32
2022-12-12T13:00:19.759Z,8.32
2022-12-12T13:02:56.792Z,8.32
2022-12-12T13:05:27.200Z,8.23
2022-12-12T13:08:15.375Z,8.80
2022-12-12T13:10:50.498Z,8.50
2022-12-12T13:13:30.638Z,8.40
2022-12-12T13:16:11.951Z,7.25
2022-12-12T13:18:47.817Z,6.90
2022-12-12T13:21:33.315Z,7.80
2022-12-12T13:24:06.409Z,6.40
2022-12-12T13:27:05.774Z,6.22
2022-12-12T13:29:32.679Z,6.93
2022-12-12T13:32:17.366Z,6.35
2022-12-12T13:34:48.705Z,5.97
2022-12-12T13:37:20.140Z,6.40
2022-12-12T13:39:57.343Z,6.57
2022-12-12T13:42:24.412Z,6.70
2022-12-12T13:44:51.654Z,6.93
2022-12-12T13:47:24.811Z,6.32
2022-12-12T13:50:06.604Z,5.10
2022-12-12T13:52:43.229Z,5.70
2022-12-12T13:55:13.032Z,4.78
2022-12-12T13:58:06.794Z,5.28
2022-12-12T14:00:40.722Z,6.95
2022-12-12T14:03:28.990Z,7.55
2022-12-12T14:06:09.754Z,8.60
2022-12-12T14:08:38.770Z,10.43
2022-12-12T14:11:11.911Z,10.80
2022-12-12T14:13:45.830Z,11.43
2022-12-12T14:16:16.002Z,11.52
2022-12-12T14:18:52.288Z,10.90
2022-12-12T14:21:22.009Z,11.02
2022-12-12T14:23:53.376Z,12.90
2022-12-12T14:26:29.345Z,13.15
2022-12-12T14:29:18.031Z,12.48
2022-12-12T14:32:10.881Z,13.15
2022-12-12T14:35:15.136Z,14.82
2022-12-12T14:38:20.728Z,14.93
2022-12-12T14:40:54.311Z,14.32
2022-12-12T14:43:26.556Z,15.15
2022-12-12T14:45:55.405Z,14.30
2022-12-12T14:48:35.389Z,14.02
2022-12-12T14:51:05.695Z,15.82
2022-12-12T14:53:38.438Z,18.02
2022-12-12T14:56:30.612Z,12.73
2022-12-12T14:59:02.828Z,17.27
2022-12-12T15:01:34.758Z,16.10
2022-12-12T15:04:11.098Z,17.85
2022-12-12T15:06:42.547Z,20.55
2022-12-12T15:09:31.741Z,20.95
2022-12-12T15:12:10.727Z,20.75
2022-12-12T15:14:40.103Z,22.65
2022-12-12T15:17:13.032Z,21.10
2022-12-12T15:19:44.895Z,20.70
2022-12-12T15:22:22.213Z,19.15
2022-12-12T15:24:49.224Z,19.02
2022-12-12T15:27:26.623Z,19.77
2022-12-12T15:29:54.214Z,20.70
2022-12-12T15:32:24.085Z,20.17
2022-12-12T15:35:03.336Z,21.40
2022-12-12T15:37:33.207Z,22.10
2022-12-12T15:40:15.015Z,37.50
2022-12-12T15:42:52.719Z,22.90
2022-12-12T15:45:26.449Z,20.48
2022-12-12T15:47:55.291Z,17.70
2022-12-12T15:50:33.878Z,16.67
2022-12-12T15:53:26.509Z,14.48
2022-12-12T15:56:12.183Z,14.88
2022-12-12T15:58:47.904Z,15.70
2022-12-12T16:01:20.381Z,15.00
2022-12-12T16:04:08.473Z,16.63
2022-12-12T16:06:39.519Z,16.70
2022-12-12T16:09:19.986Z,24.02
2022-12-12T16:11:57.284Z,23.40
2022-12-12T16:14:32.479Z,26.27
2022-12-12T16:17:19.496Z,24.40
2022-12-12T16:19:48.132Z,22.92
2022-12-12T16:22:26.750Z,24.50
2022-12-12T16:24:57.089Z,25.83
2022-12-12T16:27:24.212Z,24.10
2022-12-12T16:29:51.577Z,25.75
2022-12-12T16:32:20.590Z,27.65
2022-12-12T16:34:47.620Z,28.52
2022-12-12T16:37:17.181Z,28.98
2022-12-12T16:39:44.820Z,41.30
2022-12-12T16:42:17.256Z,40.28
2022-12-12T16:44:45.012Z,30.10
2022-12-12T16:47:19.433Z,33.10
2022-12-12T16:49:47.094Z,29.17
2022-12-12T16:52:19.642Z,25.42
2022-12-12T16:54:53.234Z,24.48
2022-12-12T16:57:22.157Z,24.67
2022-12-12T16:59:49.229Z,23.20
2022-12-12T17:02:22.331Z,22.17
2022-12-12T17:04:50.683Z,22.70
2022-12-12T17:07:17.941Z,23.80
2022-12-12T17:09:44.972Z,22.75
2022-12-12T17:12:13.229Z,25.48
2022-12-12T17:14:40.400Z,23.58
2022-12-12T17:17:07.459Z,25.75
2022-12-12T17:19:34.578Z,25.17
2022-12-12T17:22:01.831Z,24.35
2022-12-12T17:24:29.399Z,21.95
2022-12-12T17:26:57.208Z,21.60
2022-12-12T17:29:24.216Z,23.00
2022-12-12T17:31:51.287Z,21.00
2022-12-12T17:34:18.258Z,21.17
2022-12-12T17:36:45.293Z,21.38
2022-12-12T17:39:12.230Z,23.55
2022-12-12T17:41:39.252Z,24.63
2022-12-12T17:44:06.284Z,23.58
2022-12-12T17:46:33.277Z,25.35
2022-12-12T17:49:02.108Z,27.15
2022-12-12T17:51:29.749Z,25.33
2022-12-12T17:53:56.859Z,25.25
2022-12-12T17:56:25.120Z,24.80
2022-12-12T17:58:54.470Z,23.95
2022-12-12T18:01:27.615Z,25.27
2022-12-12T18:03:55.844Z,25.42
2022-12-12T18:06:24.133Z,26.83
2022-12-12T18:08:52.065Z,27.35
2022-12-12T18:11:24.642Z,26.88
2022-12-12T18:13:53.966Z,21.52
2022-12-12T18:16:23.763Z,25.48
2022-12-12T18:18:51.880Z,24.88
2022-12-12T18:21:51.741Z,25.55
2022-12-12T18:24:09.929Z,29.67
2022-12-12T18:26:37.123Z,28.50
2022-12-12T18:29:06.400Z,27.85
2022-12-12T18:31:34.910Z,28.23
2022-12-12T18:34:02.240Z,29.35
2022-12-12T18:36:30.795Z,26.48
2022-12-12T18:38:59.949Z,32.15
2022-12-12T18:41:28.394Z,35.58
2022-12-12T18:43:56.089Z,26.70
2022-12-12T18:46:27.851Z,26.88
2022-12-12T18:48:55.236Z,27.23
2022-12-12T18:51:27.470Z,28.75
2022-12-12T18:53:56.405Z,29.80
2022-12-12T18:56:26.057Z,29.73
2022-12-12T18:58:55.968Z,29.88
2022-12-12T19:01:25.993Z,25.70
2022-12-12T19:03:54.557Z,27.00
2022-12-12T19:06:24.154Z,27.17
2022-12-12T19:08:51.176Z,27.92
2022-12-12T19:11:18.775Z,23.67
2022-12-12T19:13:46.531Z,25.90
2022-12-12T19:16:17.526Z,24.63
2022-12-12T19:18:45.785Z,28.55
2022-12-12T19:21:16.438Z,31.00
2022-12-12T19:23:43.420Z,30.25
2022-12-12T19:26:16.841Z,33.58
2022-12-12T19:31:14.896Z,29.63
2022-12-12T19:33:43.333Z,29.77
2022-12-12T19:36:16.183Z,30.02
2022-12-12T19:38:43.794Z,22.90
2022-12-12T19:41:13.051Z,31.58
2022-12-12T19:43:44.790Z,31.20
2022-12-12T19:46:14.331Z,30.70
2022-12-12T19:48:42.398Z,31.60
2022-12-12T19:51:21.235Z,32.75
2022-12-12T19:53:51.316Z,34.83
2022-12-12T19:56:20.854Z,33.47
2022-12-12T19:58:48.231Z,30.50
2022-12-12T20:01:21.194Z,31.73
2022-12-12T20:04:06.696Z,35.55
2022-12-12T20:06:41.236Z,37.67
2022-12-12T20:09:09.784Z,36.78
2022-12-12T20:11:38.873Z,41.67
2022-12-12T20:14:06.423Z,36.13
2022-12-12T20:16:33.489Z,30.17
2022-12-12T20:19:00.652Z,28.02
2022-12-12T20:24:18.602Z,25.08
2022-12-12T20:26:46.513Z,23.58
2022-12-12T20:29:14.718Z,24.73
2022-12-12T20:31:45.536Z,22.60
2022-12-12T20:34:13.939Z,20.70
2022-12-12T20:36:41.959Z,20.60
2022-12-12T20:39:16.213Z,21.00
2022-12-12T20:41:44.452Z,21.05
2022-12-12T20:44:12.496Z,21.80
2022-12-12T20:46:42.203Z,23.42
2022-12-12T20:49:12.878Z,22.85
2022-12-12T20:51:57.384Z,22.30
2022-12-12T20:54:27.223Z,21.27
2022-12-12T20:56:54.756Z,22.05
2022-12-12T20:59:21.957Z,21.77
2022-12-12T21:01:49.101Z,24.50
2022-12-12T21:04:16.338Z,22.63
2022-12-12T21:06:48.415Z,22.02
2022-12-12T21:09:22.840Z,21.63
2022-12-12T21:11:51.100Z,19.48
2022-12-12T21:14:18.147Z,20.20
2022-12-12T21:16:45.232Z,20.50
2022-12-12T21:19:14.309Z,18.52
2022-12-12T21:21:42.838Z,21.45
2022-12-12T21:24:12.166Z,18.73
2022-12-12T21:26:39.185Z,19.10
2022-12-12T21:29:07.018Z,19.92
2022-12-12T21:31:36.785Z,22.23
2022-12-12T21:34:06.054Z,20.42
2022-12-12T21:36:33.845Z,21.40
2022-12-12T21:39:03.321Z,21.00
2022-12-12T21:41:30.625Z,23.08
2022-12-12T21:43:59.728Z,22.67
2022-12-12T21:46:29.022Z,22.92
2022-12-12T21:49:15.926Z,22.63
2022-12-12T21:51:43.477Z,30.52
2022-12-12T21:54:12.349Z,26.90
2022-12-12T21:56:40.752Z,24.15
2022-12-12T21:59:08.079Z,25.90
2022-12-12T22:01:35.128Z,22.77
2022-12-12T22:04:02.360Z,22.52
2022-12-12T22:06:32.033Z,22.52
2022-12-12T22:09:01.593Z,22.48
2022-12-12T22:11:41.751Z,22.02
2022-12-12T22:14:21.449Z,23.25
2022-12-12T22:16:48.832Z,21.05
2022-12-12T22:19:17.032Z,21.42
2022-12-12T22:21:46.516Z,21.83
2022-12-12T22:24:14.027Z,20.73
2022-12-12T22:26:42.909Z,20.55
2022-12-12T22:29:16.033Z,19.20
2022-12-12T22:31:43.856Z,19.90
2022-12-12T22:34:16.751Z,19.15
2022-12-12T22:36:45.169Z,19.23
2022-12-12T22:39:19.322Z,19.55
2022-12-12T22:41:46.711Z,19.02
2022-12-12T22:44:16.299Z,17.95
2022-12-12T22:46:45.197Z,18.35
2022-12-12T22:49:14.902Z,18.38
2022-12-12T22:51:43.171Z,18.42
2022-12-12T22:54:10.456Z,18.23
2022-12-12T22:56:38.976Z,21.48
2022-12-12T22:59:06.958Z,18.55
2022-12-12T23:01:34.619Z,17.05
2022-12-12T23:04:02.839Z,17.50
2022-12-12T23:06:37.159Z,17.10
2022-12-12T23:09:20.846Z,17.38
2022-12-12T23:14:21.774Z,16.27
2022-12-12T23:16:50.375Z,17.00
2022-12-12T23:19:20.168Z,17.48
2022-12-12T23:21:47.624Z,17.63
2022-12-12T23:24:14.715Z,16.77
2022-12-12T23:26:42.846Z,18.13
2022-12-12T23:29:15.061Z,16.92
2022-12-12T23:31:42.479Z,16.85
2022-12-12T23:34:16.781Z,15.98
2022-12-12T23:36:44.137Z,16.10
2022-12-12T23:39:12.207Z,15.85
2022-12-12T23:41:39.889Z,15.88
2022-12-12T23:44:08.173Z,16.15
2022-12-12T23:46:36.566Z,15.18
2022-12-12T23:49:06.170Z,15.30
2022-12-12T23:51:36.033Z,14.38
2022-12-12T23:54:05.230Z,15.00
2022-12-12T23:56:32.545Z,14.48
2022-12-12T23:58:59.945Z,15.18
